sensor_id;sensor_type;location;lat;lon;timestamp;P1;durP1;ratioP1;P2;durP2;ratioP2
66893;SDS011;53801;55.786;49.142;2023-03-05T00:00:34;10.63;;;4.10;;
66893;SDS011;53801;55.786;49.142;2023-03-05T00:03:00;9.10;;;3.92;;
66893;SDS011;53801;55.786;49.142;2023-03-05T00:05:25;10.30;;;4.30;;
66893;SDS011;53801;55.786;49.142;2023-03-05T00:07:50;14.73;;;5.50;;
66893;SDS011;53801;55.786;49.142;2023-03-05T00:10:16;10.00;;;4.20;;
66893;SDS011;53801;55.786;49.142;2023-03-05T00:12:41;12.13;;;4.60;;
66893;SDS011;53801;55.786;49.142;2023-03-05T00:15:07;12.63;;;4.70;;
66893;SDS011;53801;55.786;49.142;2023-03-05T00:17:32;10.32;;;3.92;;
66893;SDS011;53801;55.786;49.142;2023-03-05T00:19:58;12.13;;;5.00;;
66893;SDS011;53801;55.786;49.142;2023-03-05T00:22:23;12.30;;;4.23;;
66893;SDS011;53801;55.786;49.142;2023-03-05T00:24:49;12.20;;;4.97;;
66893;SDS011;53801;55.786;49.142;2023-03-05T00:27:14;13.20;;;4.60;;
66893;SDS011;53801;55.786;49.142;2023-03-05T00:29:40;14.83;;;4.77;;
66893;SDS011;53801;55.786;49.142;2023-03-05T00:32:05;13.27;;;4.97;;
66893;SDS011;53801;55.786;49.142;2023-03-05T00:34:31;13.68;;;5.15;;
66893;SDS011;53801;55.786;49.142;2023-03-05T00:36:56;12.53;;;4.07;;
66893;SDS011;53801;55.786;49.142;2023-03-05T00:39:22;11.77;;;4.37;;
66893;SDS011;53801;55.786;49.142;2023-03-05T00:41:47;12.03;;;4.83;;
66893;SDS011;53801;55.786;49.142;2023-03-05T00:44:13;13.05;;;4.78;;
66893;SDS011;53801;55.786;49.142;2023-03-05T00:46:38;13.30;;;4.57;;
66893;SDS011;53801;55.786;49.142;2023-03-05T00:49:04;12.80;;;4.85;;
66893;SDS011;53801;55.786;49.142;2023-03-05T00:51:30;13.55;;;4.78;;
66893;SDS011;53801;55.786;49.142;2023-03-05T00:53:55;15.23;;;5.47;;
66893;SDS011;53801;55.786;49.142;2023-03-05T00:59:26;13.00;;;4.90;;
66893;SDS011;53801;55.786;49.142;2023-03-05T01:01:51;12.73;;;5.10;;
66893;SDS011;53801;55.786;49.142;2023-03-05T01:04:17;14.80;;;5.53;;
66893;SDS011;53801;55.786;49.142;2023-03-05T01:06:42;13.73;;;4.78;;
66893;SDS011;53801;55.786;49.142;2023-03-05T01:09:10;12.00;;;4.93;;
66893;SDS011;53801;55.786;49.142;2023-03-05T01:11:35;13.82;;;5.25;;
66893;SDS011;53801;55.786;49.142;2023-03-05T01:14:01;11.97;;;4.70;;
66893;SDS011;53801;55.786;49.142;2023-03-05T01:16:26;14.53;;;5.50;;
66893;SDS011;53801;55.786;49.142;2023-03-05T01:18:52;12.15;;;4.75;;
66893;SDS011;53801;55.786;49.142;2023-03-05T01:21:17;16.83;;;5.63;;
66893;SDS011;53801;55.786;49.142;2023-03-05T01:23:43;16.23;;;5.50;;
66893;SDS011;53801;55.786;49.142;2023-03-05T01:26:08;12.43;;;5.07;;
66893;SDS011;53801;55.786;49.142;2023-03-05T01:28:34;14.27;;;5.10;;
66893;SDS011;53801;55.786;49.142;2023-03-05T01:30:59;15.50;;;5.68;;
66893;SDS011;53801;55.786;49.142;2023-03-05T01:33:24;19.50;;;5.93;;
66893;SDS011;53801;55.786;49.142;2023-03-05T01:35:50;12.33;;;4.80;;
66893;SDS011;53801;55.786;49.142;2023-03-05T01:38:15;13.60;;;5.10;;
66893;SDS011;53801;55.786;49.142;2023-03-05T01:40:41;12.00;;;4.90;;
66893;SDS011;53801;55.786;49.142;2023-03-05T01:45:36;16.42;;;6.38;;
66893;SDS011;53801;55.786;49.142;2023-03-05T01:48:01;14.35;;;5.78;;
66893;SDS011;53801;55.786;49.142;2023-03-05T01:50:27;15.00;;;6.00;;
66893;SDS011;53801;55.786;49.142;2023-03-05T01:52:54;13.77;;;5.37;;
66893;SDS011;53801;55.786;49.142;2023-03-05T01:55:21;14.25;;;5.28;;
66893;SDS011;53801;55.786;49.142;2023-03-05T01:57:49;14.93;;;5.85;;
66893;SDS011;53801;55.786;49.142;2023-03-05T02:00:16;18.63;;;6.40;;
66893;SDS011;53801;55.786;49.142;2023-03-05T02:02:43;15.17;;;5.70;;
66893;SDS011;53801;55.786;49.142;2023-03-05T02:05:10;15.30;;;5.93;;
66893;SDS011;53801;55.786;49.142;2023-03-05T02:07:36;15.02;;;6.22;;
66893;SDS011;53801;55.786;49.142;2023-03-05T02:10:14;20.65;;;7.40;;
66893;SDS011;53801;55.786;49.142;2023-03-05T02:12:40;18.33;;;6.97;;
66893;SDS011;53801;55.786;49.142;2023-03-05T02:15:25;15.77;;;6.40;;
66893;SDS011;53801;55.786;49.142;2023-03-05T02:17:50;15.95;;;6.30;;
66893;SDS011;53801;55.786;49.142;2023-03-05T02:20:17;16.30;;;5.90;;
66893;SDS011;53801;55.786;49.142;2023-03-05T02:22:43;16.23;;;6.22;;
66893;SDS011;53801;55.786;49.142;2023-03-05T02:25:16;16.67;;;6.23;;
66893;SDS011;53801;55.786;49.142;2023-03-05T02:27:42;17.38;;;6.40;;
66893;SDS011;53801;55.786;49.142;2023-03-05T02:30:08;15.63;;;6.07;;
66893;SDS011;53801;55.786;49.142;2023-03-05T02:32:34;16.33;;;6.00;;
66893;SDS011;53801;55.786;49.142;2023-03-05T02:34:59;16.40;;;6.13;;
66893;SDS011;53801;55.786;49.142;2023-03-05T02:37:28;13.38;;;5.15;;
66893;SDS011;53801;55.786;49.142;2023-03-05T02:39:54;17.77;;;6.43;;
66893;SDS011;53801;55.786;49.142;2023-03-05T02:42:19;18.00;;;6.70;;
66893;SDS011;53801;55.786;49.142;2023-03-05T02:44:44;15.23;;;5.70;;
66893;SDS011;53801;55.786;49.142;2023-03-05T02:47:10;17.77;;;6.10;;
66893;SDS011;53801;55.786;49.142;2023-03-05T02:49:35;14.32;;;5.90;;
66893;SDS011;53801;55.786;49.142;2023-03-05T02:52:01;15.13;;;6.38;;
66893;SDS011;53801;55.786;49.142;2023-03-05T02:54:26;13.93;;;5.47;;
66893;SDS011;53801;55.786;49.142;2023-03-05T02:56:52;17.67;;;6.13;;
66893;SDS011;53801;55.786;49.142;2023-03-05T02:59:17;17.85;;;6.47;;
66893;SDS011;53801;55.786;49.142;2023-03-05T03:01:43;12.10;;;4.97;;
66893;SDS011;53801;55.786;49.142;2023-03-05T03:04:08;18.27;;;6.70;;
66893;SDS011;53801;55.786;49.142;2023-03-05T03:06:33;14.63;;;5.23;;
66893;SDS011;53801;55.786;49.142;2023-03-05T03:08:59;17.60;;;6.53;;
66893;SDS011;53801;55.786;49.142;2023-03-05T03:11:24;12.23;;;4.73;;
66893;SDS011;53801;55.786;49.142;2023-03-05T03:13:50;15.83;;;5.63;;
66893;SDS011;53801;55.786;49.142;2023-03-05T03:16:15;15.48;;;6.00;;
66893;SDS011;53801;55.786;49.142;2023-03-05T03:18:41;13.03;;;5.43;;
66893;SDS011;53801;55.786;49.142;2023-03-05T03:21:06;15.03;;;5.63;;
66893;SDS011;53801;55.786;49.142;2023-03-05T03:23:32;18.60;;;6.40;;
66893;SDS011;53801;55.786;49.142;2023-03-05T03:25:58;16.30;;;6.17;;
66893;SDS011;53801;55.786;49.142;2023-03-05T03:28:23;17.27;;;6.15;;
66893;SDS011;53801;55.786;49.142;2023-03-05T03:30:49;16.85;;;6.10;;
66893;SDS011;53801;55.786;49.142;2023-03-05T03:33:14;15.63;;;5.77;;
66893;SDS011;53801;55.786;49.142;2023-03-05T03:35:42;14.20;;;5.20;;
66893;SDS011;53801;55.786;49.142;2023-03-05T03:38:08;18.67;;;6.35;;
66893;SDS011;53801;55.786;49.142;2023-03-05T03:40:33;15.50;;;6.30;;
66893;SDS011;53801;55.786;49.142;2023-03-05T03:42:59;15.95;;;4.80;;
66893;SDS011;53801;55.786;49.142;2023-03-05T03:45:25;17.73;;;6.10;;
66893;SDS011;53801;55.786;49.142;2023-03-05T03:47:50;10.07;;;4.37;;
66893;SDS011;53801;55.786;49.142;2023-03-05T03:50:17;16.80;;;5.53;;
66893;SDS011;53801;55.786;49.142;2023-03-05T03:52:42;12.38;;;5.30;;
66893;SDS011;53801;55.786;49.142;2023-03-05T03:55:08;15.37;;;4.43;;
66893;SDS011;53801;55.786;49.142;2023-03-05T03:57:33;14.80;;;6.05;;
66893;SDS011;53801;55.786;49.142;2023-03-05T03:59:59;15.67;;;5.90;;
66893;SDS011;53801;55.786;49.142;2023-03-05T04:02:25;12.87;;;4.50;;
66893;SDS011;53801;55.786;49.142;2023-03-05T04:04:50;14.30;;;5.03;;
66893;SDS011;53801;55.786;49.142;2023-03-05T04:07:16;12.57;;;4.73;;
66893;SDS011;53801;55.786;49.142;2023-03-05T04:09:41;10.68;;;4.10;;
66893;SDS011;53801;55.786;49.142;2023-03-05T04:12:07;12.77;;;5.20;;
66893;SDS011;53801;55.786;49.142;2023-03-05T04:14:33;13.83;;;5.13;;
66893;SDS011;53801;55.786;49.142;2023-03-05T04:16:58;12.63;;;4.50;;
66893;SDS011;53801;55.786;49.142;2023-03-05T04:19:24;13.87;;;4.97;;
66893;SDS011;53801;55.786;49.142;2023-03-05T04:21:49;12.37;;;5.17;;
66893;SDS011;53801;55.786;49.142;2023-03-05T04:24:15;15.27;;;5.13;;
66893;SDS011;53801;55.786;49.142;2023-03-05T04:26:40;13.07;;;4.93;;
66893;SDS011;53801;55.786;49.142;2023-03-05T04:29:05;11.20;;;4.53;;
66893;SDS011;53801;55.786;49.142;2023-03-05T04:31:31;12.75;;;4.28;;
66893;SDS011;53801;55.786;49.142;2023-03-05T04:33:57;14.00;;;4.90;;
66893;SDS011;53801;55.786;49.142;2023-03-05T04:36:23;11.23;;;4.07;;
66893;SDS011;53801;55.786;49.142;2023-03-05T04:38:48;12.33;;;4.50;;
66893;SDS011;53801;55.786;49.142;2023-03-05T04:41:14;12.40;;;5.15;;
66893;SDS011;53801;55.786;49.142;2023-03-05T04:43:39;12.88;;;4.80;;
66893;SDS011;53801;55.786;49.142;2023-03-05T04:46:05;12.00;;;4.40;;
66893;SDS011;53801;55.786;49.142;2023-03-05T04:48:30;15.20;;;4.67;;
66893;SDS011;53801;55.786;49.142;2023-03-05T04:50:56;13.87;;;4.17;;
66893;SDS011;53801;55.786;49.142;2023-03-05T04:53:22;12.63;;;5.05;;
66893;SDS011;53801;55.786;49.142;2023-03-05T04:55:51;9.67;;;3.53;;
66893;SDS011;53801;55.786;49.142;2023-03-05T04:58:16;11.63;;;4.93;;
66893;SDS011;53801;55.786;49.142;2023-03-05T05:00:45;13.05;;;4.78;;
66893;SDS011;53801;55.786;49.142;2023-03-05T05:03:10;12.67;;;4.97;;
66893;SDS011;53801;55.786;49.142;2023-03-05T05:05:36;13.50;;;4.80;;
66893;SDS011;53801;55.786;49.142;2023-03-05T05:08:02;11.07;;;4.10;;
66893;SDS011;53801;55.786;49.142;2023-03-05T05:10:27;9.70;;;3.93;;
66893;SDS011;53801;55.786;49.142;2023-03-05T05:12:53;12.90;;;4.40;;
66893;SDS011;53801;55.786;49.142;2023-03-05T05:15:18;11.45;;;4.43;;
66893;SDS011;53801;55.786;49.142;2023-03-05T05:17:44;14.53;;;4.50;;
66893;SDS011;53801;55.786;49.142;2023-03-05T05:20:10;14.02;;;4.50;;
66893;SDS011;53801;55.786;49.142;2023-03-05T05:22:36;11.48;;;4.32;;
66893;SDS011;53801;55.786;49.142;2023-03-05T05:25:02;13.90;;;4.00;;
66893;SDS011;53801;55.786;49.142;2023-03-05T05:27:28;13.07;;;4.80;;
66893;SDS011;53801;55.786;49.142;2023-03-05T05:29:54;11.88;;;3.85;;
66893;SDS011;53801;55.786;49.142;2023-03-05T05:32:20;14.10;;;4.63;;
66893;SDS011;53801;55.786;49.142;2023-03-05T05:34:47;11.10;;;4.40;;
66893;SDS011;53801;55.786;49.142;2023-03-05T05:37:12;11.43;;;4.38;;
66893;SDS011;53801;55.786;49.142;2023-03-05T05:39:37;11.10;;;4.43;;
66893;SDS011;53801;55.786;49.142;2023-03-05T05:42:03;12.00;;;4.17;;
66893;SDS011;53801;55.786;49.142;2023-03-05T05:44:29;8.48;;;3.70;;
66893;SDS011;53801;55.786;49.142;2023-03-05T05:46:54;12.93;;;5.17;;
66893;SDS011;53801;55.786;49.142;2023-03-05T05:49:19;16.60;;;4.87;;
66893;SDS011;53801;55.786;49.142;2023-03-05T05:51:45;12.93;;;5.10;;
66893;SDS011;53801;55.786;49.142;2023-03-05T05:54:12;11.13;;;4.60;;
66893;SDS011;53801;55.786;49.142;2023-03-05T05:56:37;9.88;;;4.15;;
66893;SDS011;53801;55.786;49.142;2023-03-05T05:59:03;12.50;;;4.87;;
66893;SDS011;53801;55.786;49.142;2023-03-05T06:01:29;10.67;;;4.77;;
66893;SDS011;53801;55.786;49.142;2023-03-05T06:03:55;11.57;;;4.68;;
66893;SDS011;53801;55.786;49.142;2023-03-05T06:06:21;11.23;;;4.17;;
66893;SDS011;53801;55.786;49.142;2023-03-05T06:08:47;11.43;;;4.55;;
66893;SDS011;53801;55.786;49.142;2023-03-05T06:11:13;12.07;;;4.13;;
66893;SDS011;53801;55.786;49.142;2023-03-05T06:13:39;14.00;;;5.47;;
66893;SDS011;53801;55.786;49.142;2023-03-05T06:16:06;11.65;;;4.80;;
66893;SDS011;53801;55.786;49.142;2023-03-05T06:18:32;14.77;;;6.05;;
66893;SDS011;53801;55.786;49.142;2023-03-05T06:20:59;14.17;;;5.33;;
66893;SDS011;53801;55.786;49.142;2023-03-05T06:23:25;15.15;;;5.72;;
66893;SDS011;53801;55.786;49.142;2023-03-05T06:25:51;15.18;;;5.50;;
66893;SDS011;53801;55.786;49.142;2023-03-05T06:28:20;13.77;;;6.10;;
66893;SDS011;53801;55.786;49.142;2023-03-05T06:30:49;15.73;;;5.57;;
66893;SDS011;53801;55.786;49.142;2023-03-05T06:33:14;15.57;;;5.70;;
66893;SDS011;53801;55.786;49.142;2023-03-05T06:35:40;14.50;;;5.43;;
66893;SDS011;53801;55.786;49.142;2023-03-05T06:38:06;13.85;;;5.38;;
66893;SDS011;53801;55.786;49.142;2023-03-05T06:40:32;14.02;;;5.75;;
66893;SDS011;53801;55.786;49.142;2023-03-05T06:42:57;15.57;;;5.07;;
66893;SDS011;53801;55.786;49.142;2023-03-05T06:45:22;11.25;;;4.90;;
66893;SDS011;53801;55.786;49.142;2023-03-05T06:47:48;8.80;;;3.93;;
66893;SDS011;53801;55.786;49.142;2023-03-05T06:50:15;13.73;;;5.00;;
66893;SDS011;53801;55.786;49.142;2023-03-05T06:52:40;11.82;;;4.53;;
66893;SDS011;53801;55.786;49.142;2023-03-05T06:55:06;23.53;;;5.70;;
66893;SDS011;53801;55.786;49.142;2023-03-05T06:57:40;10.18;;;3.90;;
66893;SDS011;53801;55.786;49.142;2023-03-05T07:00:20;12.15;;;4.55;;
66893;SDS011;53801;55.786;49.142;2023-03-05T07:02:53;15.23;;;6.00;;
66893;SDS011;53801;55.786;49.142;2023-03-05T07:05:19;14.20;;;6.45;;
66893;SDS011;53801;55.786;49.142;2023-03-05T07:07:44;15.10;;;6.10;;
66893;SDS011;53801;55.786;49.142;2023-03-05T07:10:10;16.30;;;7.60;;
66893;SDS011;53801;55.786;49.142;2023-03-05T07:12:51;13.70;;;5.63;;
66893;SDS011;53801;55.786;49.142;2023-03-05T07:15:17;12.17;;;5.10;;
66893;SDS011;53801;55.786;49.142;2023-03-05T07:17:43;9.98;;;3.63;;
66893;SDS011;53801;55.786;49.142;2023-03-05T07:20:10;7.93;;;3.63;;
66893;SDS011;53801;55.786;49.142;2023-03-05T07:22:36;11.30;;;4.40;;
66893;SDS011;53801;55.786;49.142;2023-03-05T07:25:02;11.27;;;4.18;;
66893;SDS011;53801;55.786;49.142;2023-03-05T07:27:29;10.30;;;3.57;;
66893;SDS011;53801;55.786;49.142;2023-03-05T07:29:54;7.70;;;3.40;;
66893;SDS011;53801;55.786;49.142;2023-03-05T07:32:20;8.37;;;2.53;;
66893;SDS011;53801;55.786;49.142;2023-03-05T07:34:50;6.15;;;2.65;;
66893;SDS011;53801;55.786;49.142;2023-03-05T07:37:18;7.80;;;2.65;;
66893;SDS011;53801;55.786;49.142;2023-03-05T07:39:44;6.90;;;2.50;;
66893;SDS011;53801;55.786;49.142;2023-03-05T07:42:10;7.25;;;2.67;;
66893;SDS011;53801;55.786;49.142;2023-03-05T07:44:35;6.82;;;3.00;;
66893;SDS011;53801;55.786;49.142;2023-03-05T07:47:00;6.97;;;3.40;;
66893;SDS011;53801;55.786;49.142;2023-03-05T07:49:26;8.23;;;3.00;;
66893;SDS011;53801;55.786;49.142;2023-03-05T07:51:51;6.60;;;2.40;;
66893;SDS011;53801;55.786;49.142;2023-03-05T07:54:17;5.50;;;2.27;;
66893;SDS011;53801;55.786;49.142;2023-03-05T07:56:42;5.85;;;2.15;;
66893;SDS011;53801;55.786;49.142;2023-03-05T07:59:10;7.60;;;2.93;;
66893;SDS011;53801;55.786;49.142;2023-03-05T08:01:36;6.43;;;2.90;;
66893;SDS011;53801;55.786;49.142;2023-03-05T08:04:02;6.00;;;2.55;;
66893;SDS011;53801;55.786;49.142;2023-03-05T08:06:28;6.47;;;2.65;;
66893;SDS011;53801;55.786;49.142;2023-03-05T08:08:57;7.50;;;2.47;;
66893;SDS011;53801;55.786;49.142;2023-03-05T08:11:23;7.95;;;3.45;;
66893;SDS011;53801;55.786;49.142;2023-03-05T08:13:48;5.60;;;2.53;;
66893;SDS011;53801;55.786;49.142;2023-03-05T08:16:15;6.27;;;2.90;;
66893;SDS011;53801;55.786;49.142;2023-03-05T08:18:41;8.93;;;2.58;;
66893;SDS011;53801;55.786;49.142;2023-03-05T08:21:14;6.35;;;3.45;;
66893;SDS011;53801;55.786;49.142;2023-03-05T08:23:39;5.43;;;2.80;;
66893;SDS011;53801;55.786;49.142;2023-03-05T08:26:11;6.72;;;3.30;;
66893;SDS011;53801;55.786;49.142;2023-03-05T08:28:37;5.68;;;2.70;;
66893;SDS011;53801;55.786;49.142;2023-03-05T08:31:06;6.73;;;3.20;;
66893;SDS011;53801;55.786;49.142;2023-03-05T08:33:32;6.05;;;2.50;;
66893;SDS011;53801;55.786;49.142;2023-03-05T08:35:57;8.87;;;3.53;;
66893;SDS011;53801;55.786;49.142;2023-03-05T08:38:23;5.90;;;2.37;;
66893;SDS011;53801;55.786;49.142;2023-03-05T08:40:49;6.50;;;2.70;;
66893;SDS011;53801;55.786;49.142;2023-03-05T08:43:15;8.43;;;3.40;;
66893;SDS011;53801;55.786;49.142;2023-03-05T08:45:41;7.13;;;3.38;;
66893;SDS011;53801;55.786;49.142;2023-03-05T08:48:07;8.43;;;4.60;;
66893;SDS011;53801;55.786;49.142;2023-03-05T08:53:21;9.75;;;3.53;;
66893;SDS011;53801;55.786;49.142;2023-03-05T08:55:53;9.48;;;3.35;;
66893;SDS011;53801;55.786;49.142;2023-03-05T08:58:19;10.03;;;4.57;;
66893;SDS011;53801;55.786;49.142;2023-03-05T09:00:44;10.73;;;4.38;;
66893;SDS011;53801;55.786;49.142;2023-03-05T09:03:10;12.63;;;4.82;;
66893;SDS011;53801;55.786;49.142;2023-03-05T09:05:35;9.57;;;4.37;;
66893;SDS011;53801;55.786;49.142;2023-03-05T09:08:01;11.23;;;3.70;;
66893;SDS011;53801;55.786;49.142;2023-03-05T09:10:31;8.35;;;3.65;;
66893;SDS011;53801;55.786;49.142;2023-03-05T09:12:59;11.60;;;5.17;;
66893;SDS011;53801;55.786;49.142;2023-03-05T09:15:31;10.07;;;4.50;;
66893;SDS011;53801;55.786;49.142;2023-03-05T09:17:57;9.40;;;3.30;;
66893;SDS011;53801;55.786;49.142;2023-03-05T09:20:23;8.60;;;3.40;;
66893;SDS011;53801;55.786;49.142;2023-03-05T09:22:49;9.20;;;3.95;;
66893;SDS011;53801;55.786;49.142;2023-03-05T09:25:22;12.83;;;4.37;;
66893;SDS011;53801;55.786;49.142;2023-03-05T09:28:09;11.00;;;4.53;;
66893;SDS011;53801;55.786;49.142;2023-03-05T09:30:39;11.80;;;4.75;;
66893;SDS011;53801;55.786;49.142;2023-03-05T09:33:05;10.53;;;4.17;;
66893;SDS011;53801;55.786;49.142;2023-03-05T09:35:33;6.60;;;2.90;;
66893;SDS011;53801;55.786;49.142;2023-03-05T09:37:59;8.17;;;3.70;;
66893;SDS011;53801;55.786;49.142;2023-03-05T09:40:24;6.88;;;2.88;;
66893;SDS011;53801;55.786;49.142;2023-03-05T09:46:26;9.15;;;3.67;;
66893;SDS011;53801;55.786;49.142;2023-03-05T09:48:51;8.13;;;3.47;;
66893;SDS011;53801;55.786;49.142;2023-03-05T09:51:38;10.35;;;3.58;;
66893;SDS011;53801;55.786;49.142;2023-03-05T09:54:05;9.40;;;3.15;;
66893;SDS011;53801;55.786;49.142;2023-03-05T09:56:37;9.97;;;4.13;;
66893;SDS011;53801;55.786;49.142;2023-03-05T09:59:18;6.28;;;2.55;;
66893;SDS011;53801;55.786;49.142;2023-03-05T10:02:29;8.43;;;3.22;;
66893;SDS011;53801;55.786;49.142;2023-03-05T10:12:45;10.23;;;3.75;;
66893;SDS011;53801;55.786;49.142;2023-03-05T10:15:20;8.80;;;2.78;;
66893;SDS011;53801;55.786;49.142;2023-03-05T10:18:04;8.93;;;2.97;;
66893;SDS011;53801;55.786;49.142;2023-03-05T10:23:24;8.37;;;2.90;;
66893;SDS011;53801;55.786;49.142;2023-03-05T10:33:44;7.88;;;2.90;;
66893;SDS011;53801;55.786;49.142;2023-03-05T10:43:53;9.47;;;2.93;;
66893;SDS011;53801;55.786;49.142;2023-03-05T10:46:21;7.97;;;2.90;;
66893;SDS011;53801;55.786;49.142;2023-03-05T10:48:58;13.70;;;2.78;;
66893;SDS011;53801;55.786;49.142;2023-03-05T10:51:32;11.63;;;3.58;;
66893;SDS011;53801;55.786;49.142;2023-03-05T10:54:03;9.98;;;3.63;;
66893;SDS011;53801;55.786;49.142;2023-03-05T10:56:36;9.30;;;3.33;;
66893;SDS011;53801;55.786;49.142;2023-03-05T10:59:02;9.75;;;3.35;;
66893;SDS011;53801;55.786;49.142;2023-03-05T11:01:28;9.27;;;3.10;;
66893;SDS011;53801;55.786;49.142;2023-03-05T11:03:59;11.93;;;3.13;;
66893;SDS011;53801;55.786;49.142;2023-03-05T11:06:28;10.57;;;3.40;;
66893;SDS011;53801;55.786;49.142;2023-03-05T11:12:14;10.17;;;3.60;;
66893;SDS011;53801;55.786;49.142;2023-03-05T11:14:45;10.95;;;3.22;;
66893;SDS011;53801;55.786;49.142;2023-03-05T11:17:28;11.48;;;4.20;;
66893;SDS011;53801;55.786;49.142;2023-03-05T11:20:19;11.73;;;3.75;;
66893;SDS011;53801;55.786;49.142;2023-03-05T11:22:49;10.90;;;3.38;;
66893;SDS011;53801;55.786;49.142;2023-03-05T11:25:29;12.23;;;3.60;;
66893;SDS011;53801;55.786;49.142;2023-03-05T11:27:57;9.77;;;3.10;;
66893;SDS011;53801;55.786;49.142;2023-03-05T11:30:31;12.75;;;3.53;;
66893;SDS011;53801;55.786;49.142;2023-03-05T11:33:07;10.55;;;3.78;;
66893;SDS011;53801;55.786;49.142;2023-03-05T11:35:36;8.30;;;3.15;;
66893;SDS011;53801;55.786;49.142;2023-03-05T11:38:02;10.37;;;3.10;;
66893;SDS011;53801;55.786;49.142;2023-03-05T11:40:29;9.20;;;3.40;;
66893;SDS011;53801;55.786;49.142;2023-03-05T11:43:15;10.45;;;3.47;;
66893;SDS011;53801;55.786;49.142;2023-03-05T11:46:02;8.52;;;3.15;;
66893;SDS011;53801;55.786;49.142;2023-03-05T11:48:29;11.00;;;3.75;;
66893;SDS011;53801;55.786;49.142;2023-03-05T11:51:00;12.73;;;3.53;;
66893;SDS011;53801;55.786;49.142;2023-03-05T11:55:55;11.52;;;3.40;;
66893;SDS011;53801;55.786;49.142;2023-03-05T12:01:18;10.13;;;3.92;;
66893;SDS011;53801;55.786;49.142;2023-03-05T12:03:44;11.27;;;3.70;;
66893;SDS011;53801;55.786;49.142;2023-03-05T12:08:46;9.65;;;3.80;;
66893;SDS011;53801;55.786;49.142;2023-03-05T12:11:39;9.98;;;3.45;;
66893;SDS011;53801;55.786;49.142;2023-03-05T12:14:31;9.88;;;3.70;;
66893;SDS011;53801;55.786;49.142;2023-03-05T12:17:11;11.60;;;3.88;;
66893;SDS011;53801;55.786;49.142;2023-03-05T12:22:32;10.93;;;3.60;;
66893;SDS011;53801;55.786;49.142;2023-03-05T12:27:43;8.95;;;3.13;;
66893;SDS011;53801;55.786;49.142;2023-03-05T12:33:32;11.27;;;3.67;;
66893;SDS011;53801;55.786;49.142;2023-03-05T12:44:37;9.68;;;3.72;;
66893;SDS011;53801;55.786;49.142;2023-03-05T12:49:50;8.13;;;2.88;;
66893;SDS011;53801;55.786;49.142;2023-03-05T12:52:40;9.43;;;3.30;;
66893;SDS011;53801;55.786;49.142;2023-03-05T12:55:17;8.18;;;2.75;;
66893;SDS011;53801;55.786;49.142;2023-03-05T12:57:46;6.85;;;2.53;;
66893;SDS011;53801;55.786;49.142;2023-03-05T13:02:55;6.82;;;2.30;;
66893;SDS011;53801;55.786;49.142;2023-03-05T13:05:33;11.40;;;3.35;;
66893;SDS011;53801;55.786;49.142;2023-03-05T13:11:02;7.80;;;2.95;;
66893;SDS011;53801;55.786;49.142;2023-03-05T13:13:30;11.33;;;3.80;;
66893;SDS011;53801;55.786;49.142;2023-03-05T13:15:59;12.70;;;4.20;;
66893;SDS011;53801;55.786;49.142;2023-03-05T13:18:26;11.27;;;3.97;;
66893;SDS011;53801;55.786;49.142;2023-03-05T13:21:05;11.52;;;3.72;;
66893;SDS011;53801;55.786;49.142;2023-03-05T13:23:31;15.63;;;4.40;;
66893;SDS011;53801;55.786;49.142;2023-03-05T13:26:01;15.38;;;4.38;;
66893;SDS011;53801;55.786;49.142;2023-03-05T13:28:27;11.52;;;3.72;;
66893;SDS011;53801;55.786;49.142;2023-03-05T13:31:00;12.90;;;4.75;;
66893;SDS011;53801;55.786;49.142;2023-03-05T13:33:28;15.02;;;4.88;;
66893;SDS011;53801;55.786;49.142;2023-03-05T13:35:54;11.07;;;3.90;;
66893;SDS011;53801;55.786;49.142;2023-03-05T13:41:02;12.88;;;4.25;;
66893;SDS011;53801;55.786;49.142;2023-03-05T13:43:28;13.90;;;4.77;;
66893;SDS011;53801;55.786;49.142;2023-03-05T13:45:54;14.32;;;4.75;;
66893;SDS011;53801;55.786;49.142;2023-03-05T13:48:24;11.73;;;4.80;;
66893;SDS011;53801;55.786;49.142;2023-03-05T13:50:56;14.85;;;4.82;;
66893;SDS011;53801;55.786;49.142;2023-03-05T13:53:23;16.45;;;5.68;;
66893;SDS011;53801;55.786;49.142;2023-03-05T13:55:51;18.35;;;5.07;;
66893;SDS011;53801;55.786;49.142;2023-03-05T14:01:04;14.83;;;5.30;;
66893;SDS011;53801;55.786;49.142;2023-03-05T14:03:41;15.73;;;5.22;;
66893;SDS011;53801;55.786;49.142;2023-03-05T14:06:47;11.40;;;4.07;;
66893;SDS011;53801;55.786;49.142;2023-03-05T14:12:46;13.32;;;4.60;;
66893;SDS011;53801;55.786;49.142;2023-03-05T14:15:22;11.27;;;3.93;;
66893;SDS011;53801;55.786;49.142;2023-03-05T14:17:48;11.65;;;4.43;;
66893;SDS011;53801;55.786;49.142;2023-03-05T14:22:51;15.18;;;5.22;;
66893;SDS011;53801;55.786;49.142;2023-03-05T14:27:52;14.23;;;5.18;;
66893;SDS011;53801;55.786;49.142;2023-03-05T14:30:25;11.73;;;5.00;;
66893;SDS011;53801;55.786;49.142;2023-03-05T14:32:54;12.50;;;4.63;;
66893;SDS011;53801;55.786;49.142;2023-03-05T14:35:30;16.73;;;5.57;;
66893;SDS011;53801;55.786;49.142;2023-03-05T14:37:57;12.38;;;4.45;;
66893;SDS011;53801;55.786;49.142;2023-03-05T14:40:35;12.43;;;3.80;;
66893;SDS011;53801;55.786;49.142;2023-03-05T14:43:08;13.68;;;3.97;;
66893;SDS011;53801;55.786;49.142;2023-03-05T14:45:37;12.77;;;4.43;;
66893;SDS011;53801;55.786;49.142;2023-03-05T14:50:49;13.90;;;4.03;;
66893;SDS011;53801;55.786;49.142;2023-03-05T14:56:35;11.20;;;3.70;;
66893;SDS011;53801;55.786;49.142;2023-03-05T14:59:10;12.47;;;3.83;;
66893;SDS011;53801;55.786;49.142;2023-03-05T15:01:36;18.75;;;4.93;;
66893;SDS011;53801;55.786;49.142;2023-03-05T15:04:01;12.23;;;3.80;;
66893;SDS011;53801;55.786;49.142;2023-03-05T15:06:31;13.68;;;4.60;;
66893;SDS011;53801;55.786;49.142;2023-03-05T15:09:00;14.73;;;4.35;;
66893;SDS011;53801;55.786;49.142;2023-03-05T15:11:26;16.97;;;4.87;;
66893;SDS011;53801;55.786;49.142;2023-03-05T15:13:51;16.13;;;4.93;;
66893;SDS011;53801;55.786;49.142;2023-03-05T15:16:17;20.23;;;5.05;;
66893;SDS011;53801;55.786;49.142;2023-03-05T15:18:49;17.17;;;4.78;;
66893;SDS011;53801;55.786;49.142;2023-03-05T15:21:27;18.80;;;5.57;;
66893;SDS011;53801;55.786;49.142;2023-03-05T15:23:55;15.60;;;4.88;;
66893;SDS011;53801;55.786;49.142;2023-03-05T15:26:24;15.52;;;5.20;;
66893;SDS011;53801;55.786;49.142;2023-03-05T15:28:53;16.90;;;5.13;;
66893;SDS011;53801;55.786;49.142;2023-03-05T15:31:31;16.23;;;5.05;;
66893;SDS011;53801;55.786;49.142;2023-03-05T15:34:05;12.10;;;4.05;;
66893;SDS011;53801;55.786;49.142;2023-03-05T15:36:36;14.00;;;4.15;;
66893;SDS011;53801;55.786;49.142;2023-03-05T15:39:02;12.43;;;3.90;;
66893;SDS011;53801;55.786;49.142;2023-03-05T15:41:32;9.95;;;3.42;;
66893;SDS011;53801;55.786;49.142;2023-03-05T15:44:04;13.93;;;4.32;;
66893;SDS011;53801;55.786;49.142;2023-03-05T15:46:36;11.00;;;3.47;;
66893;SDS011;53801;55.786;49.142;2023-03-05T15:49:10;14.02;;;4.32;;
66893;SDS011;53801;55.786;49.142;2023-03-05T15:51:41;14.20;;;4.28;;
66893;SDS011;53801;55.786;49.142;2023-03-05T15:54:10;11.68;;;3.70;;
66893;SDS011;53801;55.786;49.142;2023-03-05T15:56:35;13.90;;;4.00;;
66893;SDS011;53801;55.786;49.142;2023-03-05T15:59:06;9.30;;;2.97;;
66893;SDS011;53801;55.786;49.142;2023-03-05T16:01:35;12.10;;;3.72;;
66893;SDS011;53801;55.786;49.142;2023-03-05T16:04:00;12.60;;;3.53;;